createdAt,value
2023-03-17T00:00:07.842Z,99320.11
2023-03-17T00:09:39.615Z,99326.78
2023-03-17T00:19:14.366Z,99329.71
2023-03-17T00:28:45.635Z,99314.69
2023-03-17T00:38:19.560Z,99319.17
2023-03-17T00:47:53.200Z,99324.38
2023-03-17T00:57:26.333Z,99305.90
2023-03-17T01:06:59.989Z,99288.78
2023-03-17T01:16:34.174Z,99282.19
2023-03-17T01:26:07.694Z,99271.12
2023-03-17T01:35:42.987Z,99257.67
2023-03-17T01:45:16.349Z,99237.64
2023-03-17T01:54:49.492Z,99244.98
2023-03-17T02:04:21.250Z,99262.53
2023-03-17T02:13:54.269Z,99242.56
2023-03-17T02:23:29.324Z,99250.24
2023-03-17T02:33:02.948Z,99228.66
2023-03-17T02:42:34.887Z,99194.91
2023-03-17T02:52:09.500Z,99210.19
2023-03-17T03:01:40.807Z,99204.79
2023-03-17T03:11:14.306Z,99220.52
2023-03-17T03:20:47.370Z,99232.03
2023-03-17T03:30:20.810Z,99230.80
2023-03-17T03:39:53.989Z,99208.36
2023-03-17T03:49:28.415Z,99214.38
2023-03-17T03:59:01.258Z,99203.93
2023-03-17T04:08:38.249Z,99202.15
2023-03-17T04:18:06.472Z,99188.80
2023-03-17T04:27:41.297Z,99203.55
2023-03-17T04:37:12.968Z,99207.58
2023-03-17T04:46:45.912Z,99228.94
2023-03-17T04:56:20.856Z,99220.92
2023-03-17T05:05:54.160Z,99235.78
2023-03-17T05:15:25.978Z,99230.50
2023-03-17T05:24:59.838Z,99237.70
2023-03-17T05:34:33.872Z,99233.63
2023-03-17T05:44:08.025Z,99216.52
2023-03-17T05:53:43.620Z,99221.03
2023-03-17T06:03:15.304Z,99221.77
2023-03-17T06:12:49.351Z,99213.88
2023-03-17T06:22:21.119Z,99213.13
2023-03-17T06:31:54.771Z,99239.11
2023-03-17T06:41:28.612Z,99248.19
2023-03-17T06:51:03.934Z,99240.70
2023-03-17T07:00:36.322Z,99242.02
2023-03-17T07:10:10.768Z,99238.49
2023-03-17T07:19:44.897Z,99241.05
2023-03-17T07:29:18.552Z,99237.63
2023-03-17T07:30:22.647Z,99234.25
2023-03-17T07:39:56.374Z,99232.28
2023-03-17T07:40:58.830Z,99232.58
2023-03-17T07:50:32.660Z,99224.70
2023-03-17T07:51:38.969Z,99224.19
2023-03-17T08:01:08.152Z,99210.13
2023-03-17T08:02:12.267Z,99206.94
2023-03-17T08:03:14.773Z,99208.56
2023-03-17T08:04:17.028Z,99201.55
2023-03-17T08:05:21.214Z,99201.87
2023-03-17T08:06:23.447Z,99209.67
2023-03-17T08:07:27.482Z,99210.69
2023-03-17T08:08:31.407Z,99207.24
2023-03-17T08:09:35.286Z,99207.70
2023-03-17T08:10:39.233Z,99200.94
2023-03-17T08:11:43.222Z,99207.57
2023-03-17T08:21:15.947Z,99205.36
2023-03-17T08:22:19.554Z,99208.33
2023-03-17T08:23:21.826Z,99209.25
2023-03-17T08:24:25.948Z,99209.55
2023-03-17T08:25:28.259Z,99212.71
2023-03-17T08:26:30.683Z,99206.09
2023-03-17T08:27:33.952Z,99206.59
2023-03-17T08:28:37.337Z,99202.61
2023-03-17T08:29:39.571Z,99204.70
2023-03-17T08:30:42.059Z,99203.98
2023-03-17T08:31:46.515Z,99203.80
2023-03-17T08:32:46.999Z,99203.59
2023-03-17T08:33:49.372Z,99205.34
2023-03-17T08:34:51.792Z,99202.65
2023-03-17T08:35:54.302Z,99206.34
2023-03-17T08:36:56.696Z,99208.86
2023-03-17T08:37:59.150Z,99206.98
2023-03-17T08:39:03.264Z,99196.69
2023-03-17T08:40:07.169Z,99196.23
2023-03-17T08:41:11.153Z,99201.66
2023-03-17T08:42:13.346Z,99201.77
2023-03-17T08:43:15.739Z,99204.11
2023-03-17T08:44:19.756Z,99202.66
2023-03-17T08:45:23.692Z,99202.66
2023-03-17T08:46:26.114Z,99198.17
2023-03-17T08:47:28.461Z,99195.42
2023-03-17T08:48:30.911Z,99191.94
2023-03-17T08:49:33.383Z,99189.34
2023-03-17T08:50:37.449Z,99185.72
2023-03-17T08:51:39.798Z,99180.61
2023-03-17T08:52:42.199Z,99176.72
2023-03-17T08:53:46.464Z,99176.95
2023-03-17T08:54:48.806Z,99176.56
2023-03-17T08:55:51.251Z,99175.41
2023-03-17T08:56:53.683Z,99180.58
2023-03-17T08:57:57.692Z,99173.36
2023-03-17T08:59:00.145Z,99176.55
2023-03-17T09:00:02.689Z,99184.70
2023-03-17T09:01:05.396Z,99179.86
2023-03-17T09:02:09.449Z,99180.28
2023-03-17T09:03:11.824Z,99182.70
2023-03-17T09:04:14.316Z,99164.41
2023-03-17T09:05:16.899Z,99169.14
2023-03-17T09:06:19.265Z,99166.30
2023-03-17T09:07:23.304Z,99163.37
2023-03-17T09:08:25.713Z,99160.05
2023-03-17T09:09:28.161Z,99159.89
2023-03-17T09:10:30.918Z,99160.00
2023-03-17T09:11:34.704Z,99157.50
2023-03-17T09:12:38.637Z,99156.28
2023-03-17T09:13:40.911Z,99156.49
2023-03-17T09:14:45.898Z,99154.81
2023-03-17T09:15:48.982Z,99155.06
2023-03-17T09:16:50.630Z,99153.95
2023-03-17T09:17:53.066Z,99151.02
2023-03-17T09:18:55.574Z,99153.70
2023-03-17T09:19:57.989Z,99156.01
2023-03-17T09:21:02.091Z,99152.14
2023-03-17T09:22:07.073Z,99155.96
2023-03-17T09:23:10.968Z,99151.55
2023-03-17T09:24:13.235Z,99152.86
2023-03-17T09:25:15.733Z,99151.91
2023-03-17T09:26:18.138Z,99148.30
2023-03-17T09:27:20.605Z,99149.94
2023-03-17T09:28:24.646Z,99148.17
2023-03-17T09:29:26.979Z,99146.53
2023-03-17T09:30:31.215Z,99145.27
2023-03-17T09:31:33.505Z,99142.43
2023-03-17T09:32:35.909Z,99143.27
2023-03-17T09:33:38.312Z,99142.08
2023-03-17T09:34:40.804Z,99148.45
2023-03-17T09:35:44.880Z,99146.23
2023-03-17T09:36:47.181Z,99153.36
2023-03-17T09:37:51.264Z,99154.12
2023-03-17T09:38:55.163Z,99154.63
2023-03-17T09:39:57.488Z,99151.13
2023-03-17T09:40:59.966Z,99152.38
2023-03-17T09:42:04.074Z,99149.87
2023-03-17T09:43:08.058Z,99151.58
2023-03-17T09:44:10.349Z,99145.07
2023-03-17T09:45:14.466Z,99145.88
2023-03-17T09:46:16.810Z,99140.10
2023-03-17T09:47:19.244Z,99136.65
2023-03-17T09:48:21.694Z,99138.97
2023-03-17T09:49:25.763Z,99134.79
2023-03-17T09:50:29.899Z,99137.50
2023-03-17T09:51:33.598Z,99135.95
2023-03-17T09:52:35.931Z,99139.14
2023-03-17T09:53:38.397Z,99133.50
2023-03-17T09:54:42.485Z,99132.34
2023-03-17T09:55:44.778Z,99134.00
2023-03-17T09:56:47.242Z,99134.83
2023-03-17T09:57:49.731Z,99145.14
2023-03-17T09:58:53.766Z,99144.20
2023-03-17T09:59:57.688Z,99148.75
2023-03-17T10:01:01.608Z,99147.18
2023-03-17T10:02:05.671Z,99147.95
2023-03-17T10:03:09.446Z,99148.00
2023-03-17T10:04:11.725Z,99149.06
2023-03-17T10:05:14.229Z,99141.19
2023-03-17T10:06:16.703Z,99142.53
2023-03-17T10:07:19.140Z,99147.75
2023-03-17T10:08:31.049Z,99143.31
2023-03-17T10:09:27.015Z,99148.67
2023-03-17T10:10:28.102Z,99150.55
2023-03-17T10:11:30.529Z,99146.97
2023-03-17T10:12:34.687Z,99144.02
2023-03-17T10:13:38.555Z,99146.64
2023-03-17T10:14:40.902Z,99142.05
2023-03-17T10:15:44.942Z,99141.46
2023-03-17T10:16:48.789Z,99141.52
2023-03-17T10:17:51.155Z,99144.73
2023-03-17T10:18:53.641Z,99139.45
2023-03-17T10:19:57.656Z,99142.38
2023-03-17T10:21:01.528Z,99144.90
2023-03-17T10:22:03.889Z,99141.78
2023-03-17T10:23:07.946Z,99138.27
2023-03-17T10:24:10.313Z,99138.60
2023-03-17T10:25:12.735Z,99138.82
2023-03-17T10:26:16.770Z,99139.06
2023-03-17T10:27:19.124Z,99133.76
2023-03-17T10:28:23.172Z,99134.48
2023-03-17T10:29:25.617Z,99132.64
2023-03-17T10:30:30.004Z,99133.67
2023-03-17T10:31:33.773Z,99129.58
2023-03-17T10:32:36.037Z,99132.45
2023-03-17T10:33:40.096Z,99130.09
2023-03-17T10:34:42.411Z,99130.69
2023-03-17T10:35:44.951Z,99124.88
2023-03-17T10:36:47.295Z,99127.19
2023-03-17T10:37:56.790Z,99127.38
2023-03-17T10:38:53.663Z,99133.72
2023-03-17T10:39:57.844Z,99135.30
2023-03-17T10:41:00.184Z,99138.00
2023-03-17T10:42:04.245Z,99141.73
2023-03-17T10:43:08.142Z,99141.22
2023-03-17T10:44:10.589Z,99138.52
2023-03-17T10:45:14.938Z,99134.48
2023-03-17T10:46:17.401Z,99131.20
2023-03-17T10:47:19.856Z,99134.16
2023-03-17T10:48:23.736Z,99126.44
2023-03-17T10:49:26.061Z,99125.47
2023-03-17T10:50:28.528Z,99129.16
2023-03-17T10:51:32.569Z,99124.55
2023-03-17T10:52:34.810Z,99127.13
2023-03-17T10:53:37.241Z,99127.97
2023-03-17T10:54:41.294Z,99122.77
2023-03-17T10:55:43.660Z,99123.59
2023-03-17T10:56:47.708Z,99125.14
2023-03-17T10:57:50.043Z,99122.80
2023-03-17T10:58:54.134Z,99119.38
2023-03-17T10:59:56.520Z,99125.70
2023-03-17T11:00:58.878Z,99127.16
2023-03-17T11:02:01.352Z,99124.69
2023-03-17T11:03:05.397Z,99124.69
2023-03-17T11:04:07.790Z,99125.66
2023-03-17T11:05:10.151Z,99124.51
2023-03-17T11:06:14.283Z,99124.67
2023-03-17T11:07:18.133Z,99124.13
2023-03-17T11:08:22.040Z,99126.03
2023-03-17T11:09:25.941Z,99119.88
2023-03-17T11:10:30.276Z,99117.32
2023-03-17T11:11:32.180Z,99123.98
2023-03-17T11:12:36.251Z,99123.02
2023-03-17T11:13:38.574Z,99121.77
2023-03-17T11:14:41.049Z,99115.48
2023-03-17T11:15:43.520Z,99122.00
2023-03-17T11:16:46.085Z,99117.70
2023-03-17T11:17:48.527Z,99113.48
2023-03-17T11:18:52.661Z,99114.02
2023-03-17T11:19:54.986Z,99116.78
2023-03-17T11:20:57.416Z,99112.42
2023-03-17T11:21:59.843Z,99112.45
2023-03-17T11:23:02.362Z,99110.48
2023-03-17T11:24:04.810Z,99105.84
2023-03-17T11:25:08.914Z,99108.35
2023-03-17T11:26:12.770Z,99105.73
2023-03-17T11:27:16.726Z,99105.79
2023-03-17T11:28:19.137Z,99103.81
2023-03-17T11:29:23.258Z,99107.03
2023-03-17T11:30:27.236Z,99102.18
2023-03-17T11:31:31.180Z,99103.61
2023-03-17T11:32:35.387Z,99099.33
2023-03-17T11:33:39.484Z,99101.30
2023-03-17T11:34:41.797Z,99096.78
2023-03-17T11:35:44.280Z,99096.63
2023-03-17T11:36:48.307Z,99092.58
2023-03-17T11:37:50.585Z,99096.70
2023-03-17T11:38:53.047Z,99093.30
2023-03-17T11:39:57.142Z,99091.69
2023-03-17T11:41:01.091Z,99086.36
2023-03-17T11:42:05.004Z,99089.69
2023-03-17T11:43:07.367Z,99080.81
2023-03-17T11:44:10.051Z,99083.38
2023-03-17T11:45:12.482Z,99080.26
2023-03-17T11:46:14.979Z,99083.13
2023-03-17T11:47:17.381Z,99087.02
2023-03-17T11:48:20.042Z,99083.63
2023-03-17T11:49:24.061Z,99085.23
2023-03-17T11:50:27.963Z,99086.13
2023-03-17T11:51:30.433Z,99086.50
2023-03-17T11:52:32.803Z,99086.55
2023-03-17T11:53:35.292Z,99090.31
2023-03-17T11:54:39.778Z,99092.69
2023-03-17T11:55:43.644Z,99095.64
2023-03-17T11:56:47.833Z,99096.38
2023-03-17T11:57:50.249Z,99096.05
2023-03-17T11:58:52.702Z,99092.97
2023-03-17T11:59:55.139Z,99096.20
2023-03-17T12:00:59.413Z,99092.06
2023-03-17T12:02:01.828Z,99089.53
2023-03-17T12:03:05.939Z,99082.38
2023-03-17T12:04:09.846Z,99082.57
2023-03-17T12:05:13.729Z,99076.23
2023-03-17T12:06:16.080Z,99068.30
2023-03-17T12:07:20.129Z,99063.02
2023-03-17T12:08:22.469Z,99057.91
2023-03-17T12:09:26.526Z,99058.17
2023-03-17T12:10:28.998Z,99057.09
2023-03-17T12:11:31.259Z,99054.06
2023-03-17T12:12:43.479Z,99055.52
2023-03-17T12:13:45.355Z,99059.00
2023-03-17T12:14:47.793Z,99060.50
2023-03-17T12:15:51.905Z,99063.34
2023-03-17T12:16:54.160Z,99061.23
2023-03-17T12:17:56.799Z,99058.72
2023-03-17T12:19:08.813Z,99058.73
2023-03-17T12:20:12.368Z,99056.26
2023-03-17T12:21:14.697Z,99057.44
2023-03-17T12:22:17.127Z,99055.58
2023-03-17T12:23:19.651Z,99054.03
2023-03-17T12:24:23.603Z,99051.07
2023-03-17T12:25:27.499Z,99054.32
2023-03-17T12:26:29.825Z,99049.35
2023-03-17T12:27:33.900Z,99048.96
2023-03-17T12:28:36.258Z,99050.27
2023-03-17T12:29:40.386Z,99058.17
2023-03-17T12:30:44.374Z,99061.03
2023-03-17T12:31:46.680Z,99057.30
2023-03-17T12:32:49.225Z,99062.70
2023-03-17T12:33:53.239Z,99060.89
2023-03-17T12:34:57.235Z,99057.31
2023-03-17T12:35:59.633Z,99058.03
2023-03-17T12:37:01.971Z,99056.25
2023-03-17T12:38:04.477Z,99056.08
2023-03-17T12:39:06.908Z,99052.03
2023-03-17T12:40:10.925Z,99053.07
2023-03-17T12:41:13.259Z,99048.56
2023-03-17T12:42:17.327Z,99045.31
2023-03-17T12:43:19.715Z,99045.62
2023-03-17T12:44:23.752Z,99045.74
2023-03-17T12:45:27.632Z,99045.48
2023-03-17T12:46:30.163Z,99045.06
2023-03-17T12:47:32.432Z,99041.32
2023-03-17T12:48:36.512Z,99037.17
2023-03-17T12:49:38.798Z,99041.64
2023-03-17T12:50:42.832Z,99041.56
2023-03-17T12:51:46.782Z,99041.80
2023-03-17T12:52:50.722Z,99042.97
2023-03-17T12:53:53.024Z,99038.06
2023-03-17T12:54:57.124Z,99042.58
2023-03-17T12:56:01.096Z,99042.17
2023-03-17T12:57:03.440Z,99037.87
2023-03-17T12:58:05.870Z,99033.23
2023-03-17T12:59:08.346Z,99039.62
2023-03-17T13:00:10.822Z,99031.42
2023-03-17T13:01:14.937Z,99025.08
2023-03-17T13:02:17.207Z,99025.67
2023-03-17T13:03:19.803Z,99017.44
2023-03-17T13:04:22.236Z,99019.89
2023-03-17T13:05:24.609Z,99023.17
2023-03-17T13:06:27.133Z,99017.09
2023-03-17T13:15:58.999Z,99011.66
2023-03-17T13:17:01.449Z,99012.48
2023-03-17T13:18:05.503Z,99010.91
2023-03-17T13:19:09.414Z,99011.79
2023-03-17T13:20:13.376Z,99012.78
2023-03-17T13:21:15.764Z,99008.28
2023-03-17T13:22:19.845Z,99007.28
2023-03-17T13:23:23.808Z,99004.53
2023-03-17T13:24:26.115Z,99005.20
2023-03-17T13:25:28.551Z,99006.20
2023-03-17T13:26:31.039Z,98998.81
2023-03-17T13:27:35.070Z,99001.53
2023-03-17T13:28:39.003Z,99001.31
2023-03-17T13:29:42.913Z,99000.89
2023-03-17T13:30:46.848Z,98996.52
2023-03-17T13:31:49.300Z,98988.94
2023-03-17T13:32:51.730Z,98991.07
2023-03-17T13:33:54.134Z,98989.52
2023-03-17T13:34:58.242Z,98990.39
2023-03-17T13:36:00.630Z,98987.56
2023-03-17T13:37:04.615Z,98992.92
2023-03-17T13:38:06.980Z,98988.78
2023-03-17T13:39:19.109Z,98987.33
2023-03-17T13:40:14.879Z,98985.67
2023-03-17T13:41:18.831Z,98985.00
2023-03-17T13:42:22.718Z,98989.41
2023-03-17T13:43:26.709Z,98987.22
2023-03-17T13:44:30.640Z,98987.98
2023-03-17T13:45:33.307Z,98986.42
2023-03-17T13:46:35.588Z,98987.29
2023-03-17T13:47:37.977Z,98990.31
2023-03-17T13:48:42.080Z,98987.27
2023-03-17T13:49:45.969Z,98987.69
2023-03-17T13:50:53.286Z,98984.28
2023-03-17T13:52:00.171Z,98985.38
2023-03-17T13:52:59.463Z,98984.53
2023-03-17T13:54:03.500Z,98986.28
2023-03-17T13:55:05.826Z,98982.55
2023-03-17T13:56:08.307Z,98978.44
2023-03-17T13:57:12.393Z,98977.50
2023-03-17T13:58:16.348Z,98982.52
2023-03-17T13:59:20.276Z,98981.61
2023-03-17T14:00:22.558Z,98981.77
2023-03-17T14:01:26.725Z,98984.34
2023-03-17T14:02:30.635Z,98982.95
2023-03-17T14:03:33.030Z,98986.71
2023-03-17T14:04:37.054Z,98982.61
2023-03-17T14:05:39.382Z,98981.53
2023-03-17T14:06:43.429Z,98985.52
2023-03-17T14:07:47.367Z,98982.01
2023-03-17T14:08:49.705Z,98983.04
2023-03-17T14:09:53.832Z,98978.86
2023-03-17T14:10:56.146Z,98975.84
2023-03-17T14:11:58.582Z,98975.45
2023-03-17T14:13:02.635Z,98975.84
2023-03-17T14:14:04.952Z,98970.31
2023-03-17T14:15:08.444Z,98966.00
2023-03-17T14:16:09.927Z,98969.73
2023-03-17T14:17:13.958Z,98969.75
2023-03-17T14:18:17.818Z,98973.33
2023-03-17T14:19:20.154Z,98967.28
2023-03-17T14:20:22.600Z,98966.44
2023-03-17T14:21:25.058Z,98966.81
2023-03-17T14:22:29.124Z,98968.30
2023-03-17T14:23:33.093Z,98968.27
2023-03-17T14:24:37.018Z,98968.55
2023-03-17T14:25:40.974Z,98962.02
2023-03-17T14:26:43.301Z,98970.53
2023-03-17T14:27:47.411Z,98967.21
2023-03-17T14:28:49.664Z,98968.17
2023-03-17T14:29:52.143Z,98963.88
2023-03-17T14:30:54.587Z,98965.72
2023-03-17T14:31:57.063Z,98954.89
2023-03-17T14:33:01.218Z,98965.21
2023-03-17T14:34:05.109Z,98964.34
2023-03-17T14:35:09.043Z,98958.36
2023-03-17T14:36:13.695Z,98962.20
2023-03-17T14:37:13.847Z,98962.97
2023-03-17T14:38:16.274Z,98962.11
2023-03-17T14:39:18.621Z,98963.45
2023-03-17T14:40:21.096Z,98957.88
2023-03-17T14:41:23.649Z,98953.48
2023-03-17T14:42:26.053Z,98956.64
2023-03-17T14:43:28.554Z,98958.82
2023-03-17T14:44:32.604Z,98957.44
2023-03-17T14:45:35.026Z,98957.02
2023-03-17T14:46:37.451Z,98960.13
2023-03-17T14:47:41.464Z,98956.34
2023-03-17T14:48:45.585Z,98953.09
2023-03-17T14:49:47.894Z,98947.53
2023-03-17T14:50:50.507Z,98948.18
2023-03-17T14:51:54.375Z,98947.82
2023-03-17T14:52:56.702Z,98944.36
2023-03-17T14:54:00.765Z,98946.77
2023-03-17T14:55:03.095Z,98943.02
2023-03-17T14:56:05.580Z,98944.16
2023-03-17T14:57:08.061Z,98948.02
2023-03-17T15:06:41.571Z,98953.47
2023-03-17T15:07:43.981Z,98949.56
2023-03-17T15:08:46.468Z,98951.30
2023-03-17T15:09:50.493Z,98953.91
2023-03-17T15:10:54.402Z,98950.14
2023-03-17T15:11:56.767Z,98949.20
2023-03-17T15:12:59.296Z,98942.48
2023-03-17T15:14:01.713Z,98949.86
2023-03-17T15:15:04.176Z,98951.14
2023-03-17T15:16:06.609Z,98952.58
2023-03-17T15:17:09.123Z,98948.73
2023-03-17T15:18:11.521Z,98945.96
2023-03-17T15:19:14.027Z,98948.00
2023-03-17T15:20:18.116Z,98949.20
2023-03-17T15:21:20.439Z,98946.41
2023-03-17T15:22:22.899Z,98942.23
2023-03-17T15:23:25.368Z,98939.94
2023-03-17T15:24:27.802Z,98946.18
2023-03-17T15:25:31.817Z,98946.53
2023-03-17T15:26:34.195Z,98942.72
2023-03-17T15:27:36.603Z,98941.38
2023-03-17T15:28:40.658Z,98943.28
2023-03-17T15:29:43.055Z,98944.95
2023-03-17T15:30:48.316Z,98935.27
2023-03-17T15:31:49.649Z,98936.95
2023-03-17T15:32:52.090Z,98939.27
2023-03-17T15:33:56.125Z,98936.28
2023-03-17T15:34:58.373Z,98934.91
2023-03-17T15:36:00.891Z,98939.59
2023-03-17T15:37:04.864Z,98941.73
2023-03-17T15:38:07.191Z,98940.98
2023-03-17T15:39:09.675Z,98939.16
2023-03-17T15:40:12.029Z,98940.80
2023-03-17T15:41:14.529Z,98943.97
2023-03-17T15:42:20.091Z,98942.54
2023-03-17T15:43:19.407Z,98949.08
2023-03-17T15:44:23.497Z,98943.84
2023-03-17T15:45:25.804Z,98946.64
2023-03-17T15:46:30.113Z,98942.66
2023-03-17T15:47:32.196Z,98942.58
2023-03-17T15:48:34.656Z,98939.23
2023-03-17T15:49:38.689Z,98939.09
2023-03-17T15:50:40.983Z,98939.65
2023-03-17T15:51:43.457Z,98935.83
2023-03-17T15:52:45.944Z,98934.19
2023-03-17T15:53:49.920Z,98944.07
2023-03-17T15:54:52.209Z,98943.39
2023-03-17T15:55:54.787Z,98945.22
2023-03-17T15:56:57.007Z,98946.52
2023-03-17T15:58:01.087Z,98944.04
2023-03-17T15:59:03.398Z,98944.45
2023-03-17T16:00:07.461Z,98946.97
2023-03-17T16:01:09.869Z,98941.47
2023-03-17T16:02:12.180Z,98946.95
2023-03-17T16:03:14.539Z,98944.53
2023-03-17T16:04:18.687Z,98946.17
2023-03-17T16:05:20.970Z,98937.45
2023-03-17T16:06:25.024Z,98945.91
2023-03-17T16:07:27.354Z,98944.25
2023-03-17T16:08:29.732Z,98944.41
2023-03-17T16:09:32.205Z,98945.17
2023-03-17T16:10:36.246Z,98947.00
2023-03-17T16:11:40.386Z,98945.29
2023-03-17T16:12:41.041Z,98944.95
2023-03-17T16:13:45.120Z,98947.19
2023-03-17T16:14:47.451Z,98948.50
2023-03-17T16:15:51.542Z,98951.08
2023-03-17T16:16:55.412Z,98945.27
2023-03-17T16:17:57.786Z,98944.60
2023-03-17T16:19:00.482Z,98944.64
2023-03-17T16:20:03.959Z,98948.53
2023-03-17T16:21:06.282Z,98945.78
2023-03-17T16:22:08.718Z,98948.24
2023-03-17T16:23:12.817Z,98952.06
2023-03-17T16:24:15.165Z,98952.27
2023-03-17T16:25:17.638Z,98952.16
2023-03-17T16:26:20.108Z,98949.23
2023-03-17T16:27:22.570Z,98948.94
2023-03-17T16:28:26.685Z,98947.03
2023-03-17T16:29:29.004Z,98945.42
2023-03-17T16:30:33.426Z,98945.91
2023-03-17T16:31:35.398Z,98944.61
2023-03-17T16:32:37.790Z,98943.36
2023-03-17T16:33:40.315Z,98944.50
2023-03-17T16:34:42.789Z,98944.34
2023-03-17T16:35:50.973Z,98940.56
2023-03-17T16:36:53.018Z,98937.77
2023-03-17T16:37:55.448Z,98939.38
2023-03-17T16:38:57.983Z,98933.05
2023-03-17T16:40:02.176Z,98934.16
2023-03-17T16:41:04.345Z,98940.44
2023-03-17T16:42:06.818Z,98942.10
2023-03-17T16:43:22.676Z,98939.98
2023-03-17T16:44:13.219Z,98937.38
2023-03-17T16:45:15.649Z,98937.67
2023-03-17T16:46:18.143Z,98936.44
2023-03-17T16:47:20.530Z,98940.73
2023-03-17T16:48:24.635Z,98939.52
2023-03-17T16:49:26.973Z,98940.95
2023-03-17T16:50:30.704Z,98937.25
2023-03-17T16:51:32.839Z,98932.05
2023-03-17T16:52:35.285Z,98936.26
2023-03-17T16:53:37.793Z,98939.49
2023-03-17T16:54:40.222Z,98935.03
2023-03-17T16:55:44.260Z,98938.15
2023-03-17T16:56:48.221Z,98935.83
2023-03-17T16:57:50.462Z,98934.39
2023-03-17T16:58:52.927Z,98933.67
2023-03-17T16:59:55.431Z,98930.42
2023-03-17T17:00:57.849Z,98928.12
2023-03-17T17:02:00.360Z,98930.38
2023-03-17T17:11:33.716Z,98948.41
2023-03-17T17:21:06.738Z,98961.72
2023-03-17T17:22:09.301Z,98956.68
2023-03-17T17:23:13.360Z,98957.91
2023-03-17T17:24:17.295Z,98957.56
2023-03-17T17:33:48.000Z,98979.66
2023-03-17T17:43:23.780Z,98979.81
2023-03-17T17:52:56.051Z,98975.38
2023-03-17T18:02:30.156Z,98981.52
2023-03-17T18:12:04.793Z,98984.53
2023-03-17T18:21:38.883Z,98978.48
2023-03-17T18:31:14.911Z,98970.44
2023-03-17T18:40:48.500Z,98976.29
2023-03-17T18:50:23.782Z,98982.92
2023-03-17T18:59:56.765Z,98974.84
2023-03-17T19:09:30.590Z,98976.61
2023-03-17T19:19:03.482Z,98986.09
2023-03-17T19:28:37.968Z,98991.33
2023-03-17T19:38:12.061Z,98997.67
2023-03-17T19:47:47.387Z,99003.70
2023-03-17T19:57:19.261Z,99005.15
2023-03-17T20:06:53.639Z,99013.20
2023-03-17T20:16:29.431Z,99022.84
2023-03-17T20:26:03.181Z,99024.84
2023-03-17T20:35:36.339Z,99029.80
2023-03-17T20:45:11.485Z,99024.16
2023-03-17T20:54:43.590Z,99029.38
2023-03-17T21:04:17.950Z,99030.59
2023-03-17T21:13:52.437Z,99032.27
2023-03-17T21:23:28.365Z,99033.16
2023-03-17T21:33:00.675Z,99038.80
2023-03-17T21:42:34.835Z,99040.95
2023-03-17T21:52:10.552Z,99039.09
2023-03-17T22:01:42.973Z,99055.76
2023-03-17T22:11:18.810Z,99055.97
2023-03-17T22:20:52.767Z,99053.50
2023-03-17T22:30:25.079Z,99055.22
2023-03-17T22:39:59.372Z,99057.30
2023-03-17T22:49:33.703Z,99070.00
2023-03-17T22:59:08.057Z,99089.01
2023-03-17T23:08:44.022Z,99097.33
2023-03-17T23:18:16.634Z,99105.13
2023-03-17T23:27:52.402Z,99117.91
2023-03-17T23:37:24.473Z,99134.84
2023-03-17T23:46:58.454Z,99145.98
2023-03-17T23:56:34.049Z,99140.27
